Weather History for Cullman Regional Airport, LA

Change the Weather History Date:

Tuesday, March 11, 2014

  Actual Average Record
Temperature  
Mean Temperature 58 °F -  
Max Temperature 74 °F - - ()
Min Temperature 41 °F - - ()
Degree Days  
Heating Degree Days 8    
Growing Degree Days 8 (Base 50)    
Moisture  
Dew Point 50 °F    
Average Humidity 75    
Maximum Humidity 98    
Minimum Humidity 45    
Precipitation  
Precipitation 0.01 in - - ()
Sea Level Pressure  
Sea Level Pressure 29.84 in    
Wind  
Wind Speed 3 mph (SSW)    
Max Wind Speed 16 mph    
Max Gust Speed 23 mph    
Visibility 9 miles    
Events Rain    
T = Trace of Precipitation, MM = Missing Value Source: NWS Daily Summary

Daily Weather History Graph

Daily Weather History Graph

Search for Another Location

Airport:

Trip Planner

Search our weather history database for the weather conditions in past years. The results will help you decide how hot, cold, wet, or windy it might be!

Date:

Astronomy

Mar. 11, 2014 Rise Set
Actual Time 7:03 AM CDT 6:51 PM CDT
Civil Twilight 6:38 AM CDT 7:17 PM CDT
Nautical Twilight 6:09 AM CDT 7:46 PM CDT
Astronomical Twilight 5:40 AM CDT 8:15 PM CDT
Moon 2:37 PM CDT (3/11) 3:47 AM CDT (3/11)
Length of Visible Light 12h 38m
Length of Day
11h 48m
Waxing Gibbous, 78% of the Moon is Illuminated
Mar 11
Waxing Gibbous
Mar 16
Full
Mar 23
Last Quarter
Mar 30
New
Apr 7
First Quarter

Hourly Weather History & Observations

Time (CDT) Temp. Dew Point Humidity Pressure Visibility Wind Dir Wind Speed Gust Speed Precip Events Conditions
12:15 AM 51.4 °F 45.3 °F 80% 29.94 in 10.0 mi Calm Calm - N/A   Clear
12:35 AM 48.0 °F 44.2 °F 87% 29.94 in 10.0 mi Calm Calm - N/A   Clear
12:55 AM 46.8 °F 43.9 °F 90% 29.94 in 10.0 mi Calm Calm - N/A   Clear
1:15 AM 46.2 °F 43.9 °F 92% 29.93 in 10.0 mi Calm Calm - N/A   Clear
1:35 AM 45.5 °F 43.9 °F 94% 29.93 in 10.0 mi Calm Calm - N/A   Clear
1:55 AM 45.3 °F 43.7 °F 94% 29.93 in 10.0 mi Calm Calm - N/A   Clear
2:15 AM 44.8 °F 43.2 °F 94% 29.93 in 10.0 mi Calm Calm - N/A   Clear
2:35 AM 44.1 °F 42.6 °F 95% 29.93 in 10.0 mi Calm Calm - N/A   Clear
2:55 AM 43.9 °F 42.6 °F 95% 29.92 in 10.0 mi Calm Calm - N/A   Clear
3:15 AM 43.2 °F 42.1 °F 96% 29.91 in 7.0 mi Calm Calm - N/A   Clear
3:35 AM 43.2 °F 42.1 °F 96% 29.91 in 10.0 mi Calm Calm - N/A   Clear
3:55 AM 43.3 °F 42.4 °F 97% 29.91 in 7.0 mi Calm Calm - N/A   Clear
4:15 AM 42.1 °F 41.2 °F 97% 29.90 in 7.0 mi Calm Calm - N/A   Clear
4:35 AM 42.1 °F 41.4 °F 97% 29.91 in 7.0 mi Calm Calm - N/A   Clear
4:55 AM 42.3 °F 41.5 °F 97% 29.91 in 7.0 mi Calm Calm - N/A   Clear
5:15 AM 43.3 °F 42.8 °F 98% 29.91 in 7.0 mi Calm Calm - N/A   Clear
5:35 AM 42.8 °F 41.7 °F 96% 29.90 in 7.0 mi Calm Calm - N/A   Clear
5:55 AM 42.3 °F 41.4 °F 97% 29.90 in 5.0 mi Calm Calm - N/A   Clear
6:20 AM 42.6 °F 42.1 °F 98% 29.90 in 5.0 mi Calm Calm - N/A   Clear
6:35 AM 42.6 °F 42.1 °F 98% 29.90 in 7.0 mi Calm Calm - N/A   Clear
6:55 AM 42.1 °F 41.4 °F 97% 29.89 in 7.0 mi Calm Calm - N/A   Clear
7:15 AM 41.5 °F 40.8 °F 97% 29.89 in 5.0 mi Calm Calm - N/A   Clear
7:35 AM 41.5 °F 41.0 °F 98% 29.90 in 7.0 mi Calm Calm - N/A   Clear
7:55 AM 43.5 °F 42.6 °F 97% 29.90 in 5.0 mi Calm Calm - N/A   Clear
8:15 AM 46.9 °F 45.7 °F 95% 29.90 in 5.0 mi Calm Calm - N/A   Clear
8:35 AM 50.7 °F 48.6 °F 92% 29.89 in 7.0 mi Calm Calm - N/A   Clear
8:55 AM 54.7 °F 50.5 °F 86% 29.89 in 10.0 mi Calm Calm - N/A   Clear
9:15 AM 57.7 °F 51.6 °F 80% 29.90 in 10.0 mi SSW 4.6 mph - N/A   Clear
9:35 AM 59.5 °F 51.6 °F 75% 29.89 in 10.0 mi South 3.5 mph - N/A   Clear
9:55 AM 61.5 °F 52.2 °F 71% 29.91 in 10.0 mi South 5.8 mph - N/A   Clear
10:15 AM 63.0 °F 52.5 °F 69% 29.91 in 10.0 mi SSW 4.6 mph - N/A   Clear
10:35 AM 64.0 °F 52.9 °F 67% 29.90 in 10.0 mi South 4.6 mph - N/A   Clear
11:00 AM 65.7 °F 53.4 °F 65% 29.89 in 10.0 mi West 4.6 mph - N/A   Clear
11:15 AM 67.1 °F 54.0 °F 63% 29.89 in 10.0 mi WSW 5.8 mph - N/A   Clear
11:35 AM 68.0 °F 54.1 °F 61% 29.88 in 10.0 mi West 6.9 mph - N/A   Clear
11:55 AM 69.4 °F 53.8 °F 57% 29.87 in 10.0 mi SSW 5.8 mph - N/A   Clear
12:15 PM 70.2 °F 53.4 °F 55% 29.86 in 10.0 mi SW 6.9 mph - N/A   Clear
12:35 PM 70.0 °F 53.2 °F 55% 29.85 in 10.0 mi WSW 5.8 mph - N/A   Clear
12:55 PM 71.1 °F 53.2 °F 53% 29.84 in 10.0 mi WSW 4.6 mph - N/A   Clear
1:15 PM 71.8 °F 53.4 °F 52% 29.83 in 10.0 mi South 4.6 mph - N/A   Scattered Clouds
1:35 PM 73.0 °F 53.4 °F 50% 29.82 in 7.0 mi West 10.4 mph - N/A   Scattered Clouds
1:55 PM 74.3 °F 53.2 °F 48% 29.81 in 10.0 mi SSW 8.1 mph - N/A   Scattered Clouds
2:15 PM 73.2 °F 52.9 °F 49% 29.80 in 10.0 mi South 11.5 mph - N/A   Scattered Clouds
2:35 PM 73.2 °F 53.1 °F 49% 29.79 in 10.0 mi SW 9.2 mph - N/A   Scattered Clouds
2:55 PM 73.6 °F 52.5 °F 48% 29.77 in 10.0 mi SSW 11.5 mph - N/A   Scattered Clouds
3:15 PM 74.7 °F 52.2 °F 45% 29.76 in 10.0 mi SW 6.9 mph - N/A   Scattered Clouds
3:35 PM 74.1 °F 52.2 °F 46% 29.76 in 10.0 mi SSW 11.5 mph - N/A   Scattered Clouds
3:55 PM 73.6 °F 52.3 °F 47% 29.76 in 10.0 mi South 8.1 mph 16.1 mph N/A   Mostly Cloudy
4:15 PM 73.8 °F 52.5 °F 47% 29.75 in 10.0 mi SW 11.5 mph 16.1 mph N/A   Scattered Clouds
4:35 PM 73.0 °F 52.7 °F 49% 29.75 in 10.0 mi South 10.4 mph - N/A   Scattered Clouds
4:55 PM 72.5 °F 52.7 °F 50% 29.74 in 10.0 mi SSW 8.1 mph - N/A   Mostly Cloudy
5:15 PM 72.3 °F 53.1 °F 51% 29.74 in 10.0 mi SSW 6.9 mph - N/A   Mostly Cloudy
5:35 PM 72.0 °F 52.9 °F 51% 29.74 in 10.0 mi SSW 9.2 mph - N/A   Mostly Cloudy
5:55 PM 71.4 °F 52.9 °F 52% 29.73 in 10.0 mi SSW 8.1 mph - N/A   Overcast
6:15 PM 71.2 °F 52.9 °F 52% 29.73 in 10.0 mi South 6.9 mph - N/A   Scattered Clouds
6:35 PM 70.5 °F 52.9 °F 54% 29.74 in 10.0 mi SSW 10.4 mph - N/A   Mostly Cloudy
6:55 PM 69.8 °F 53.1 °F 55% 29.74 in 10.0 mi SSW 11.5 mph - N/A   Mostly Cloudy
7:15 PM 68.9 °F 53.6 °F 58% 29.75 in 10.0 mi SSW 9.2 mph - N/A   Mostly Cloudy
7:35 PM 68.2 °F 54.0 °F 60% 29.75 in 10.0 mi SSW 9.2 mph - N/A   Mostly Cloudy
7:55 PM 67.8 °F 54.1 °F 62% 29.75 in 10.0 mi SSW 5.8 mph - N/A   Overcast
8:15 PM 67.3 °F 54.1 °F 63% 29.75 in 10.0 mi SSW 8.1 mph - N/A   Mostly Cloudy
8:35 PM 67.3 °F 54.1 °F 63% 29.75 in 10.0 mi SSW 9.2 mph - N/A   Mostly Cloudy
8:55 PM 66.4 °F 54.7 °F 66% 29.75 in 10.0 mi SSW 15.0 mph 23.0 mph N/A   Mostly Cloudy
9:15 PM 65.1 °F 55.4 °F 71% 29.75 in 10.0 mi South 13.8 mph 17.3 mph N/A   Overcast
9:35 PM 64.8 °F 55.8 °F 73% 29.75 in 10.0 mi South 16.1 mph 19.6 mph N/A   Mostly Cloudy
9:55 PM 62.4 °F 57.2 °F 83% 29.76 in 5.0 mi SSW 12.7 mph - N/A Rain Light Rain
10:15 PM 60.3 °F 58.5 °F 94% 29.76 in 5.0 mi SSW 10.4 mph - N/A Rain Rain
10:35 PM 59.9 °F 58.8 °F 96% 29.75 in 4.0 mi South 9.2 mph - 0.01 in   Light Drizzle
10:55 PM 59.9 °F 59.0 °F 97% 29.74 in 4.0 mi South 9.2 mph - 0.01 in   Overcast
11:15 PM 59.9 °F 59.0 °F 97% 29.73 in 4.0 mi South 12.7 mph - N/A   Overcast
11:35 PM 59.9 °F 59.0 °F 97% 29.73 in 4.0 mi SSW 9.2 mph - N/A   Overcast
11:55 PM 59.9 °F 59.2 °F 97% 29.72 in 5.0 mi South 9.2 mph - N/A   Overcast